createdAt,value
2019-02-28T00:00:56.197Z,9.50
2019-02-28T00:01:56.214Z,9.60
2019-02-28T00:02:56.159Z,9.60
2019-02-28T00:03:58.026Z,9.10
2019-02-28T00:04:56.135Z,9.00
2019-02-28T00:05:56.144Z,9.10
2019-02-28T00:06:56.114Z,8.70
2019-02-28T00:07:56.109Z,8.80
2019-02-28T00:08:56.099Z,9.00
2019-02-28T00:09:57.337Z,9.20
2019-02-28T00:10:56.121Z,9.10
2019-02-28T00:11:56.057Z,8.50
2019-02-28T00:12:56.046Z,8.60
2019-02-28T00:13:56.631Z,9.40
2019-02-28T00:14:58.624Z,8.60
2019-02-28T00:15:56.037Z,8.50
2019-02-28T00:16:56.004Z,8.40
2019-02-28T00:17:55.996Z,8.70
2019-02-28T00:18:55.983Z,8.30
2019-02-28T00:19:57.980Z,8.00
2019-02-28T00:20:55.964Z,8.30
2019-02-28T00:21:55.969Z,8.30
2019-02-28T00:22:55.978Z,8.50
2019-02-28T00:23:57.327Z,8.50
2019-02-28T00:24:55.918Z,8.60
2019-02-28T00:25:55.906Z,8.10
2019-02-28T00:26:55.957Z,8.00
2019-02-28T00:27:55.899Z,8.40
2019-02-28T00:28:57.067Z,8.20
2019-02-28T00:29:55.866Z,8.20
2019-02-28T00:30:55.850Z,8.20
2019-02-28T00:31:55.871Z,7.90
2019-02-28T00:32:56.338Z,8.60
2019-02-28T00:33:55.816Z,8.70
2019-02-28T00:34:55.815Z,8.50
2019-02-28T00:35:55.798Z,8.20
2019-02-28T00:36:55.823Z,7.90
2019-02-28T00:37:56.651Z,8.40
2019-02-28T00:38:55.789Z,7.80
2019-02-28T00:39:55.755Z,8.30
2019-02-28T00:40:55.748Z,8.10
2019-02-28T00:41:55.731Z,8.10
2019-02-28T00:42:55.750Z,7.80
2019-02-28T00:43:56.844Z,8.10
2019-02-28T00:44:55.722Z,8.00
2019-02-28T00:45:55.692Z,8.40
2019-02-28T00:46:55.679Z,8.30
2019-02-28T00:47:55.696Z,8.30
2019-02-28T00:48:55.671Z,7.90
2019-02-28T00:49:56.506Z,8.00
2019-02-28T00:50:58.558Z,8.00
2019-02-28T00:51:55.679Z,8.10
2019-02-28T00:52:55.648Z,8.30
2019-02-28T00:53:55.609Z,8.10
2019-02-28T00:54:55.598Z,8.50
2019-02-28T00:55:55.587Z,7.90
2019-02-28T00:56:55.590Z,7.80
2019-02-28T00:57:56.037Z,8.20
2019-02-28T00:58:55.547Z,7.90
2019-02-28T00:59:55.540Z,7.70
2019-02-28T01:00:55.531Z,7.90
2019-02-28T01:01:55.526Z,8.40
2019-02-28T01:02:55.519Z,7.80
2019-02-28T01:03:57.983Z,7.60
2019-02-28T01:04:55.485Z,8.10
2019-02-28T01:05:55.495Z,8.00
2019-02-28T01:06:55.463Z,7.70
2019-02-28T01:07:55.461Z,8.00
2019-02-28T01:08:56.117Z,8.00
2019-02-28T01:09:55.431Z,7.50
2019-02-28T01:10:55.447Z,8.20
2019-02-28T01:11:55.415Z,8.00
2019-02-28T01:12:55.403Z,7.90
2019-02-28T01:13:58.098Z,7.60
2019-02-28T01:14:56.374Z,8.30
2019-02-28T01:15:55.408Z,7.50
2019-02-28T01:16:55.355Z,7.60
2019-02-28T01:17:57.226Z,7.90
2019-02-28T01:18:56.343Z,7.50
2019-02-28T01:19:55.333Z,7.90
2019-02-28T01:20:55.340Z,7.80
2019-02-28T01:21:55.528Z,8.10
2019-02-28T01:22:58.556Z,7.70
2019-02-28T01:23:55.292Z,8.40
2019-02-28T01:24:55.279Z,7.60
2019-02-28T01:25:55.278Z,7.80
2019-02-28T01:26:55.255Z,7.70
2019-02-28T01:27:55.238Z,8.00
2019-02-28T01:28:55.229Z,7.80
2019-02-28T01:29:55.218Z,7.90
2019-02-28T01:30:55.231Z,7.60
2019-02-28T01:31:55.202Z,7.50
2019-02-28T01:32:55.187Z,7.80
2019-02-28T01:33:56.027Z,7.90
2019-02-28T01:34:55.165Z,7.50
2019-02-28T01:35:55.174Z,7.90
2019-02-28T01:36:55.139Z,7.50
2019-02-28T01:37:55.133Z,7.80
2019-02-28T01:38:57.827Z,7.80
2019-02-28T01:39:55.125Z,7.70
2019-02-28T01:40:55.144Z,7.60
2019-02-28T01:41:55.094Z,7.80
2019-02-28T01:42:55.169Z,8.00
2019-02-28T01:43:55.064Z,7.80
2019-02-28T01:44:55.054Z,7.90
2019-02-28T01:45:55.076Z,8.20
2019-02-28T01:46:55.031Z,7.50
2019-02-28T01:47:55.025Z,7.50
2019-02-28T01:48:55.205Z,8.10
2019-02-28T01:49:57.719Z,7.90
2019-02-28T01:50:54.988Z,7.50
2019-02-28T01:51:55.008Z,8.00
2019-02-28T01:52:54.969Z,8.00
2019-02-28T01:53:54.961Z,8.00
2019-02-28T01:54:54.959Z,8.10
2019-02-28T01:55:54.939Z,8.10
2019-02-28T01:56:54.941Z,7.80
2019-02-28T01:57:54.918Z,7.40
2019-02-28T01:58:54.902Z,8.10
2019-02-28T01:59:54.898Z,8.00
2019-02-28T02:00:57.337Z,7.70
2019-02-28T02:01:54.905Z,8.00
2019-02-28T02:02:54.859Z,7.50
2019-02-28T02:03:54.852Z,7.70
2019-02-28T02:04:54.844Z,7.60
2019-02-28T02:05:54.825Z,7.80
2019-02-28T02:06:59.635Z,7.70
2019-02-28T02:07:55.803Z,7.80
2019-02-28T02:08:54.791Z,8.00
2019-02-28T02:09:54.792Z,7.50
2019-02-28T02:10:56.014Z,7.60
2019-02-28T02:11:57.944Z,7.50
2019-02-28T02:12:54.777Z,7.70
2019-02-28T02:13:54.743Z,7.30
2019-02-28T02:14:54.729Z,7.60
2019-02-28T02:15:54.717Z,7.80
2019-02-28T02:16:54.734Z,7.30
2019-02-28T02:17:54.705Z,7.70
2019-02-28T02:18:54.758Z,7.40
2019-02-28T02:19:54.708Z,7.60
2019-02-28T02:20:57.410Z,7.70
2019-02-28T02:21:55.677Z,7.50
2019-02-28T02:22:54.664Z,7.90
2019-02-28T02:23:54.632Z,7.50
2019-02-28T02:24:54.623Z,7.90
2019-02-28T02:25:54.616Z,7.50
2019-02-28T02:26:54.596Z,7.70
2019-02-28T02:27:54.611Z,7.90
2019-02-28T02:28:54.584Z,7.60
2019-02-28T02:29:54.578Z,7.70
2019-02-28T02:30:54.553Z,7.60
2019-02-28T02:31:54.547Z,7.10
2019-02-28T02:32:54.562Z,7.80
2019-02-28T02:33:54.521Z,7.60
2019-02-28T02:34:54.510Z,7.60
2019-02-28T02:35:54.542Z,7.60
2019-02-28T02:36:54.630Z,7.70
2019-02-28T02:37:54.481Z,7.70
2019-02-28T02:38:54.493Z,7.60
2019-02-28T02:39:54.471Z,7.70
2019-02-28T02:40:59.045Z,7.40
2019-02-28T02:41:55.466Z,7.50
2019-02-28T02:42:54.429Z,7.70
2019-02-28T02:43:55.930Z,7.60
2019-02-28T02:44:54.431Z,7.60
2019-02-28T02:45:54.410Z,7.30
2019-02-28T02:46:56.014Z,7.80
2019-02-28T02:47:54.374Z,7.50
2019-02-28T02:48:54.399Z,7.30
2019-02-28T02:49:57.527Z,7.40
2019-02-28T02:50:54.343Z,7.70
2019-02-28T02:51:54.334Z,7.30
2019-02-28T02:52:54.319Z,7.90
2019-02-28T02:53:54.364Z,7.70
2019-02-28T02:54:54.319Z,7.70
2019-02-28T02:55:54.284Z,7.50
2019-02-28T02:56:54.273Z,7.70
2019-02-28T02:57:54.267Z,7.90
2019-02-28T02:58:54.270Z,7.30
2019-02-28T02:59:54.266Z,7.50
2019-02-28T03:00:54.238Z,7.30
2019-02-28T03:01:56.130Z,7.70
2019-02-28T03:02:54.217Z,7.10
2019-02-28T03:03:54.200Z,7.30
2019-02-28T03:04:58.185Z,7.30
2019-02-28T03:05:54.179Z,7.20
2019-02-28T03:06:54.175Z,7.30
2019-02-28T03:07:59.578Z,7.30
2019-02-28T03:08:55.149Z,7.10
2019-02-28T03:09:54.137Z,7.10
2019-02-28T03:10:54.144Z,7.10
2019-02-28T03:11:57.694Z,6.60
2019-02-28T03:12:54.106Z,7.20
2019-02-28T03:13:54.095Z,7.00
2019-02-28T03:14:54.082Z,6.90
2019-02-28T03:15:54.110Z,7.40
2019-02-28T03:16:54.067Z,7.10
2019-02-28T03:17:54.055Z,6.90
2019-02-28T03:18:58.008Z,6.60
2019-02-28T03:19:54.029Z,7.40
2019-02-28T03:20:54.051Z,7.10
2019-02-28T03:21:54.010Z,6.60
2019-02-28T03:22:53.994Z,7.00
2019-02-28T03:23:53.981Z,7.00
2019-02-28T03:24:53.980Z,7.00
2019-02-28T03:25:53.965Z,6.40
2019-02-28T03:26:53.981Z,7.20
2019-02-28T03:27:56.376Z,6.80
2019-02-28T03:28:53.934Z,6.50
2019-02-28T03:29:53.938Z,6.70
2019-02-28T03:30:53.909Z,6.90
2019-02-28T03:31:56.664Z,7.00
2019-02-28T03:32:54.889Z,6.30
2019-02-28T03:33:53.877Z,6.90
2019-02-28T03:34:58.090Z,6.40
2019-02-28T03:35:54.859Z,6.40
2019-02-28T03:36:57.138Z,7.20
2019-02-28T03:37:53.848Z,6.60
2019-02-28T03:38:53.820Z,6.80
2019-02-28T03:40:02.489Z,6.50
2019-02-28T03:40:54.800Z,6.90
2019-02-28T03:41:54.273Z,6.70
2019-02-28T03:42:53.795Z,6.80
2019-02-28T03:43:53.772Z,6.80
2019-02-28T03:44:56.957Z,6.60
2019-02-28T03:45:53.773Z,6.50
2019-02-28T03:46:53.750Z,6.70
2019-02-28T03:47:58.422Z,6.90
2019-02-28T03:48:54.713Z,6.20
2019-02-28T03:49:53.714Z,6.80
2019-02-28T03:50:55.288Z,6.50
2019-02-28T03:51:53.727Z,6.60
2019-02-28T03:52:53.704Z,6.50
2019-02-28T03:53:55.949Z,6.80
2019-02-28T03:54:53.645Z,7.10
2019-02-28T03:55:53.638Z,6.70
2019-02-28T03:56:53.646Z,6.70
2019-02-28T03:57:53.678Z,6.60
2019-02-28T03:58:53.602Z,6.80
2019-02-28T03:59:56.717Z,6.80
2019-02-28T04:00:53.604Z,6.60
2019-02-28T04:01:53.583Z,6.50
2019-02-28T04:02:58.772Z,6.60
2019-02-28T04:03:54.576Z,6.90
2019-02-28T04:04:53.547Z,7.00
2019-02-28T04:05:53.530Z,7.20
2019-02-28T04:06:53.518Z,6.70
2019-02-28T04:07:54.970Z,6.90
2019-02-28T04:08:53.520Z,6.80
2019-02-28T04:09:53.510Z,7.20
2019-02-28T04:10:54.723Z,7.40
2019-02-28T04:11:53.465Z,7.40
2019-02-28T04:12:53.456Z,7.00
2019-02-28T04:13:56.059Z,7.20
2019-02-28T04:14:53.448Z,6.90
2019-02-28T04:16:07.486Z,7.00
2019-02-28T04:16:54.598Z,7.30
2019-02-28T04:17:53.398Z,7.30
2019-02-28T04:18:53.423Z,7.10
2019-02-28T04:19:58.830Z,7.40
2019-02-28T04:20:54.370Z,7.20
2019-02-28T04:21:53.373Z,6.90
2019-02-28T04:22:58.762Z,7.10
2019-02-28T04:23:54.369Z,7.10
2019-02-28T04:24:53.323Z,7.40
2019-02-28T04:25:56.844Z,7.10
2019-02-28T04:26:53.305Z,7.30
2019-02-28T04:27:53.294Z,7.30
2019-02-28T04:28:54.668Z,7.20
2019-02-28T04:29:53.297Z,7.10
2019-02-28T04:30:53.271Z,7.40
2019-02-28T04:31:53.259Z,7.10
2019-02-28T04:32:53.249Z,7.10
2019-02-28T04:33:53.236Z,7.30
2019-02-28T04:34:53.234Z,7.30
2019-02-28T04:35:53.206Z,7.10
2019-02-28T04:36:53.198Z,7.70
2019-02-28T04:37:53.202Z,7.40
2019-02-28T04:38:53.183Z,6.90
2019-02-28T04:39:53.514Z,7.80
2019-02-28T04:40:53.155Z,7.10
2019-02-28T04:41:53.140Z,7.30
2019-02-28T04:42:53.135Z,7.60
2019-02-28T04:43:53.139Z,7.60
2019-02-28T04:44:53.119Z,7.40
2019-02-28T04:45:53.120Z,7.50
2019-02-28T04:46:53.089Z,7.40
2019-02-28T04:47:53.077Z,7.70
2019-02-28T04:48:53.080Z,7.70
2019-02-28T04:49:53.534Z,7.60
2019-02-28T04:50:53.067Z,7.60
2019-02-28T04:51:53.031Z,7.40
2019-02-28T04:52:53.019Z,7.70
2019-02-28T04:53:53.838Z,7.50
2019-02-28T04:54:52.999Z,7.60
2019-02-28T04:55:53.025Z,7.80
2019-02-28T04:56:52.983Z,7.70
2019-02-28T04:57:52.966Z,7.40
2019-02-28T04:58:52.968Z,7.30
2019-02-28T04:59:52.948Z,7.40
2019-02-28T05:00:52.941Z,7.70
2019-02-28T05:01:52.947Z,7.40
2019-02-28T05:02:54.869Z,7.40
2019-02-28T05:03:52.912Z,7.30
2019-02-28T05:04:52.892Z,7.40
2019-02-28T05:05:52.909Z,7.50
2019-02-28T05:06:55.248Z,7.40
2019-02-28T05:07:52.862Z,7.20
2019-02-28T05:08:52.846Z,7.50
2019-02-28T05:09:52.865Z,7.20
2019-02-28T05:10:55.636Z,7.50
2019-02-28T05:11:52.849Z,7.60
2019-02-28T05:12:52.804Z,7.80
2019-02-28T05:13:52.823Z,7.30
2019-02-28T05:14:55.260Z,7.70
2019-02-28T05:15:53.774Z,7.30
2019-02-28T05:16:52.784Z,7.40
2019-02-28T05:17:53.122Z,7.80
2019-02-28T05:18:52.736Z,7.40
2019-02-28T05:19:52.737Z,7.10
2019-02-28T05:20:52.750Z,7.50
2019-02-28T05:21:53.505Z,7.10
2019-02-28T05:22:52.692Z,7.50
2019-02-28T05:23:52.689Z,7.60
2019-02-28T05:24:52.670Z,7.40
2019-02-28T05:25:52.703Z,7.80
2019-02-28T05:26:52.648Z,7.60
2019-02-28T05:27:52.661Z,7.90
2019-02-28T05:28:52.630Z,7.80
2019-02-28T05:29:52.621Z,7.80
2019-02-28T05:30:53.675Z,7.60
2019-02-28T05:31:52.598Z,7.50
2019-02-28T05:32:52.624Z,7.50
2019-02-28T05:33:52.577Z,7.80
2019-02-28T05:34:52.568Z,7.50
2019-02-28T05:35:52.554Z,8.00
2019-02-28T05:36:52.545Z,7.70
2019-02-28T05:37:52.560Z,7.60
2019-02-28T05:38:53.561Z,7.70
2019-02-28T05:39:52.533Z,7.80
2019-02-28T05:40:52.497Z,7.90
2019-02-28T05:41:52.515Z,8.00
2019-02-28T05:42:54.619Z,8.10
2019-02-28T05:43:53.492Z,7.90
2019-02-28T05:44:52.455Z,7.90
2019-02-28T05:45:52.462Z,8.20
2019-02-28T05:46:52.450Z,8.40
2019-02-28T05:47:52.419Z,9.00
2019-02-28T05:48:52.426Z,8.50
2019-02-28T05:49:52.399Z,8.30
2019-02-28T05:50:53.360Z,8.20
2019-02-28T05:51:52.388Z,8.10
2019-02-28T05:52:52.379Z,8.40
2019-02-28T05:53:52.402Z,8.00
2019-02-28T05:54:52.356Z,8.10
2019-02-28T05:55:52.336Z,8.60
2019-02-28T05:56:52.329Z,8.60
2019-02-28T05:57:52.335Z,8.30
2019-02-28T05:58:53.214Z,8.60
2019-02-28T05:59:52.327Z,8.90
2019-02-28T06:00:52.299Z,8.40
2019-02-28T06:01:52.274Z,8.40
2019-02-28T06:02:54.473Z,8.10
2019-02-28T06:03:53.250Z,8.40
2019-02-28T06:04:52.271Z,9.20
2019-02-28T06:05:52.239Z,8.90
2019-02-28T06:06:54.698Z,8.70
2019-02-28T06:07:52.208Z,8.50
2019-02-28T06:08:52.224Z,9.10
2019-02-28T06:09:52.213Z,9.00
2019-02-28T06:10:52.176Z,8.90
2019-02-28T06:11:52.181Z,8.70
2019-02-28T06:12:52.163Z,8.70
2019-02-28T06:13:52.845Z,8.60
2019-02-28T06:14:52.161Z,8.50
2019-02-28T06:15:52.133Z,8.80
2019-02-28T06:16:52.121Z,8.90
2019-02-28T06:17:54.634Z,8.50
2019-02-28T06:18:52.091Z,8.90
2019-02-28T06:19:52.074Z,8.90
2019-02-28T06:20:52.268Z,8.90
2019-02-28T06:21:53.029Z,8.90
2019-02-28T06:22:52.050Z,9.00
2019-02-28T06:23:52.058Z,9.10
2019-02-28T06:24:52.022Z,9.10
2019-02-28T06:25:52.033Z,9.20
2019-02-28T06:26:52.007Z,9.00
2019-02-28T06:27:51.998Z,9.00
2019-02-28T06:28:51.977Z,9.20
2019-02-28T06:29:51.974Z,9.70
2019-02-28T06:30:52.001Z,9.10
2019-02-28T06:31:51.944Z,10.00
2019-02-28T06:32:51.940Z,9.70
2019-02-28T06:33:51.923Z,9.90
2019-02-28T06:34:51.923Z,9.70
2019-02-28T06:35:53.684Z,10.10
2019-02-28T06:36:52.315Z,9.30
2019-02-28T06:37:51.879Z,9.70
2019-02-28T06:38:54.561Z,9.20
2019-02-28T06:39:51.855Z,9.80
2019-02-28T06:40:51.847Z,9.60
2019-02-28T06:41:51.860Z,9.40
2019-02-28T06:42:51.826Z,9.60
2019-02-28T06:43:53.071Z,9.60
2019-02-28T06:44:51.816Z,9.70
2019-02-28T06:45:51.789Z,9.60
2019-02-28T06:46:51.839Z,9.70
2019-02-28T06:47:51.778Z,10.20
2019-02-28T06:48:51.756Z,10.00
2019-02-28T06:49:51.753Z,9.60
2019-02-28T06:50:51.751Z,10.20
2019-02-28T06:51:52.018Z,10.30
2019-02-28T06:52:51.736Z,10.00
2019-02-28T06:53:51.721Z,10.20
2019-02-28T06:54:51.693Z,10.00
2019-02-28T06:55:51.683Z,10.50
2019-02-28T06:56:54.087Z,10.10
2019-02-28T06:57:51.676Z,10.20
2019-02-28T06:58:51.657Z,10.90
2019-02-28T06:59:51.645Z,10.70
2019-02-28T07:00:51.628Z,11.10
2019-02-28T07:01:56.570Z,11.00
2019-02-28T07:02:52.660Z,10.60
2019-02-28T07:03:53.684Z,10.90
2019-02-28T07:04:51.592Z,10.70
2019-02-28T07:05:51.604Z,11.40
2019-02-28T07:06:51.568Z,11.10
2019-02-28T07:07:51.566Z,11.50
2019-02-28T07:08:51.569Z,11.00
2019-02-28T07:09:51.536Z,11.50
2019-02-28T07:10:51.555Z,11.90
2019-02-28T07:11:54.889Z,11.50
2019-02-28T07:12:51.504Z,12.30
2019-02-28T07:13:51.511Z,12.40
2019-02-28T07:14:51.479Z,12.20
2019-02-28T07:15:51.466Z,12.40
2019-02-28T07:16:51.460Z,12.10
2019-02-28T07:17:51.468Z,12.20
2019-02-28T07:18:53.822Z,13.40
2019-02-28T07:19:51.429Z,12.80
2019-02-28T07:20:51.436Z,12.80
2019-02-28T07:21:51.405Z,13.70
2019-02-28T07:22:54.154Z,13.50
2019-02-28T07:23:53.281Z,13.40
2019-02-28T07:24:51.387Z,14.00
2019-02-28T07:25:52.468Z,13.90
2019-02-28T07:26:52.260Z,13.30
2019-02-28T07:27:51.351Z,13.60
2019-02-28T07:28:51.323Z,14.30
2019-02-28T07:29:51.314Z,14.40
2019-02-28T07:30:51.336Z,14.30
2019-02-28T07:31:51.307Z,15.50
2019-02-28T07:32:51.279Z,14.30
2019-02-28T07:33:51.434Z,15.00
2019-02-28T07:34:51.711Z,15.30
2019-02-28T07:35:51.254Z,14.80
2019-02-28T07:36:51.254Z,15.70
2019-02-28T07:37:54.327Z,15.50
2019-02-28T07:38:51.225Z,15.20
2019-02-28T07:39:51.216Z,15.50
2019-02-28T07:40:51.213Z,16.00
2019-02-28T07:41:51.206Z,16.10
2019-02-28T07:42:51.179Z,16.90
2019-02-28T07:43:51.169Z,17.00
2019-02-28T07:44:53.658Z,17.10
2019-02-28T07:45:52.301Z,18.20
2019-02-28T07:46:51.168Z,17.30
2019-02-28T07:47:52.725Z,17.80
2019-02-28T07:48:51.117Z,18.70
2019-02-28T07:49:51.117Z,18.00
2019-02-28T07:50:51.085Z,18.40
2019-02-28T07:51:51.077Z,18.20
2019-02-28T07:52:53.122Z,19.00
2019-02-28T07:53:51.058Z,18.40
2019-02-28T07:54:51.837Z,18.60
2019-02-28T07:55:51.029Z,18.30
2019-02-28T07:56:51.024Z,18.30
2019-02-28T07:57:54.264Z,18.80
2019-02-28T07:58:51.995Z,18.70
2019-02-28T07:59:50.985Z,18.10
2019-02-28T08:00:52.680Z,18.50
2019-02-28T08:01:50.962Z,18.50
2019-02-28T08:02:51.032Z,18.50
2019-02-28T08:03:50.968Z,18.80
2019-02-28T08:04:54.374Z,19.00
2019-02-28T08:05:50.916Z,18.30
2019-02-28T08:06:50.918Z,19.10
2019-02-28T08:07:52.499Z,18.60
2019-02-28T08:08:50.902Z,17.70
2019-02-28T08:09:50.878Z,19.10
2019-02-28T08:10:50.864Z,18.60
2019-02-28T08:11:51.591Z,18.80
2019-02-28T08:12:50.844Z,19.10
2019-02-28T08:13:50.843Z,19.30
2019-02-28T08:14:50.818Z,19.00
2019-02-28T08:15:53.369Z,18.80
2019-02-28T08:16:51.811Z,19.00
2019-02-28T08:17:50.787Z,19.90
2019-02-28T08:18:51.263Z,19.80
2019-02-28T08:19:50.784Z,20.70
2019-02-28T08:20:50.754Z,20.20
2019-02-28T08:21:50.749Z,20.50
2019-02-28T08:22:50.735Z,19.90
2019-02-28T08:23:50.717Z,20.30
2019-02-28T08:24:52.077Z,19.90
2019-02-28T08:25:50.708Z,20.70
2019-02-28T08:26:53.643Z,20.10
2019-02-28T08:27:50.700Z,21.20
2019-02-28T08:28:50.708Z,21.10
2019-02-28T08:29:50.681Z,20.60
2019-02-28T08:30:54.735Z,21.20
2019-02-28T08:31:50.649Z,21.50
2019-02-28T08:32:50.618Z,21.20
2019-02-28T08:33:50.614Z,22.00
2019-02-28T08:34:50.621Z,21.90
2019-02-28T08:35:50.589Z,22.50
2019-02-28T08:36:50.613Z,22.30
2019-02-28T08:37:55.730Z,21.90
2019-02-28T08:38:51.569Z,23.70
2019-02-28T08:39:50.585Z,23.00
2019-02-28T08:40:51.596Z,23.00
2019-02-28T08:41:50.562Z,23.00
2019-02-28T08:42:50.530Z,22.90
2019-02-28T08:43:50.521Z,23.30
2019-02-28T08:44:50.489Z,23.70
2019-02-28T08:45:50.479Z,23.70
2019-02-28T08:46:50.486Z,22.50
2019-02-28T08:47:55.273Z,28.40
2019-02-28T08:48:51.448Z,24.40
2019-02-28T08:49:50.446Z,24.00
2019-02-28T08:50:52.622Z,24.10
2019-02-28T08:51:51.416Z,25.10
2019-02-28T08:52:50.430Z,24.60
2019-02-28T08:53:51.336Z,24.30
2019-02-28T08:54:50.381Z,24.50
2019-02-28T08:55:50.371Z,23.70
2019-02-28T08:56:50.765Z,24.30
2019-02-28T08:57:55.695Z,24.30
2019-02-28T08:58:51.338Z,25.10
2019-02-28T08:59:52.487Z,24.10
2019-02-28T09:00:51.318Z,25.50
2019-02-28T09:01:50.341Z,24.50
2019-02-28T09:02:53.075Z,24.90
2019-02-28T09:03:50.320Z,25.00
2019-02-28T09:04:51.030Z,24.90
2019-02-28T09:05:50.260Z,25.00
2019-02-28T09:06:50.258Z,24.70
2019-02-28T09:07:51.270Z,25.20
2019-02-28T09:08:50.246Z,25.10
2019-02-28T09:09:50.224Z,25.30
2019-02-28T09:10:50.214Z,24.90
2019-02-28T09:11:52.772Z,24.80
2019-02-28T09:12:51.184Z,25.00
2019-02-28T09:13:50.212Z,24.70
2019-02-28T09:14:51.958Z,24.10
2019-02-28T09:15:51.158Z,25.10
2019-02-28T09:16:50.146Z,26.20
2019-02-28T09:17:50.143Z,24.20
2019-02-28T09:18:50.150Z,24.20
2019-02-28T09:19:50.128Z,25.40
2019-02-28T09:20:50.097Z,25.10
2019-02-28T09:21:52.933Z,25.30
2019-02-28T09:22:50.092Z,24.80
2019-02-28T09:23:50.064Z,24.90
2019-02-28T09:24:50.093Z,24.70
2019-02-28T09:25:50.073Z,25.00
2019-02-28T09:26:50.052Z,25.30
2019-02-28T09:27:50.047Z,24.70
2019-02-28T09:28:50.011Z,25.40
2019-02-28T09:29:54.471Z,24.90
2019-02-28T09:30:50.000Z,25.50
2019-02-28T09:31:49.988Z,25.20
2019-02-28T09:32:49.994Z,25.60
2019-02-28T09:33:49.960Z,25.50
2019-02-28T09:34:49.945Z,25.10
2019-02-28T09:35:49.935Z,24.90
2019-02-28T09:36:55.236Z,24.90
2019-02-28T09:37:50.960Z,25.20
2019-02-28T09:38:56.805Z,26.10
2019-02-28T09:39:51.226Z,25.60
2019-02-28T09:40:49.897Z,25.20
2019-02-28T09:41:49.883Z,25.20
2019-02-28T09:42:51.263Z,25.70
2019-02-28T09:43:49.867Z,26.40
2019-02-28T09:44:49.838Z,25.30
2019-02-28T09:45:49.825Z,25.30
2019-02-28T09:46:50.841Z,26.20
2019-02-28T09:47:49.817Z,26.40
2019-02-28T09:48:49.812Z,25.40
2019-02-28T09:49:49.788Z,25.70
2019-02-28T09:50:49.778Z,25.70
2019-02-28T09:51:49.769Z,25.40
2019-02-28T09:52:49.755Z,26.00
2019-02-28T09:53:50.288Z,26.40
2019-02-28T09:54:49.729Z,25.90
2019-02-28T09:55:49.726Z,25.80
2019-02-28T09:56:49.728Z,26.80
2019-02-28T09:57:53.361Z,26.50
2019-02-28T09:58:49.687Z,26.30
2019-02-28T09:59:49.679Z,25.80
2019-02-28T10:00:50.400Z,25.30
2019-02-28T10:01:49.668Z,26.40
2019-02-28T10:02:49.657Z,26.40
2019-02-28T10:03:52.259Z,25.80
2019-02-28T10:04:50.632Z,26.40
2019-02-28T10:05:49.606Z,25.80
2019-02-28T10:06:51.610Z,25.80
2019-02-28T10:07:49.585Z,25.50
2019-02-28T10:08:49.572Z,25.60
2019-02-28T10:09:49.561Z,26.70
2019-02-28T10:10:52.384Z,26.20
2019-02-28T10:11:50.564Z,26.30
2019-02-28T10:12:49.570Z,26.20
2019-02-28T10:13:53.309Z,25.90
2019-02-28T10:14:49.515Z,26.20
2019-02-28T10:15:49.494Z,26.80
2019-02-28T10:16:52.557Z,26.80
2019-02-28T10:17:49.496Z,26.60
2019-02-28T10:18:49.467Z,28.40
2019-02-28T10:19:52.246Z,27.00
2019-02-28T10:20:49.469Z,26.90
2019-02-28T10:21:52.106Z,27.20
2019-02-28T10:22:49.426Z,26.60
2019-02-28T10:23:49.465Z,27.00
2019-02-28T10:24:49.394Z,26.60
2019-02-28T10:25:49.482Z,26.90
2019-02-28T10:26:51.437Z,26.80
2019-02-28T10:27:49.390Z,27.60
2019-02-28T10:28:49.356Z,26.90
2019-02-28T10:29:49.345Z,26.50
2019-02-28T10:30:50.160Z,28.00
2019-02-28T10:31:49.334Z,27.00
2019-02-28T10:32:49.310Z,27.70
2019-02-28T10:33:49.507Z,27.30
2019-02-28T10:34:49.288Z,27.00
2019-02-28T10:35:49.287Z,27.80
2019-02-28T10:36:49.320Z,27.10
2019-02-28T10:37:49.253Z,27.20
2019-02-28T10:38:49.246Z,27.80
2019-02-28T10:39:49.264Z,27.10
2019-02-28T10:40:52.202Z,27.30
2019-02-28T10:41:49.264Z,28.30
2019-02-28T10:42:49.553Z,28.00
2019-02-28T10:43:52.045Z,26.90
2019-02-28T10:44:50.205Z,26.70
2019-02-28T10:45:49.181Z,27.30
2019-02-28T10:46:53.499Z,27.70
2019-02-28T10:47:49.172Z,27.50
2019-02-28T10:48:50.972Z,27.30
2019-02-28T10:49:49.124Z,28.80
2019-02-28T10:50:49.114Z,29.80
2019-02-28T10:51:50.341Z,28.30
2019-02-28T10:52:49.128Z,28.70
2019-02-28T10:53:49.112Z,27.70
2019-02-28T10:54:49.382Z,29.20
2019-02-28T10:55:49.056Z,29.10
2019-02-28T10:56:49.078Z,28.20
2019-02-28T10:57:49.044Z,28.70
2019-02-28T10:58:50.159Z,29.10
2019-02-28T10:59:49.035Z,29.10
2019-02-28T11:00:49.007Z,29.70
2019-02-28T11:01:48.996Z,29.70
2019-02-28T11:02:50.449Z,29.50
2019-02-28T11:03:48.970Z,30.20
2019-02-28T11:04:48.970Z,30.60
2019-02-28T11:05:53.468Z,29.90
2019-02-28T11:06:49.955Z,29.20
2019-02-28T11:07:48.969Z,29.30
2019-02-28T11:08:48.920Z,29.30
2019-02-28T11:09:48.912Z,29.30
2019-02-28T11:10:48.891Z,29.20
2019-02-28T11:11:48.887Z,30.60
2019-02-28T11:12:48.906Z,29.90
2019-02-28T11:13:48.870Z,31.50
2019-02-28T11:14:48.852Z,30.90
2019-02-28T11:15:49.628Z,31.70
2019-02-28T11:16:48.835Z,31.20
2019-02-28T11:17:48.817Z,30.20
2019-02-28T11:18:48.825Z,30.90
2019-02-28T11:19:52.040Z,30.90
2019-02-28T11:20:48.815Z,30.90
2019-02-28T11:21:48.828Z,30.60
2019-02-28T11:22:48.813Z,30.50
2019-02-28T11:23:50.092Z,30.00
2019-02-28T11:24:48.763Z,30.30
2019-02-28T11:25:48.789Z,30.40
2019-02-28T11:26:48.739Z,30.90
2019-02-28T11:27:48.737Z,30.90
2019-02-28T11:28:48.739Z,30.80
2019-02-28T11:29:48.716Z,31.40
2019-02-28T11:30:48.688Z,36.30
2019-02-28T11:31:50.612Z,32.10
2019-02-28T11:32:49.662Z,31.00
2019-02-28T11:33:48.657Z,31.30
2019-02-28T11:34:49.305Z,30.90
2019-02-28T11:35:48.626Z,31.60
2019-02-28T11:36:48.615Z,31.20
2019-02-28T11:37:48.619Z,31.90
2019-02-28T11:38:48.594Z,31.40
2019-02-28T11:39:48.601Z,31.70
2019-02-28T11:40:57.055Z,32.20
2019-02-28T11:41:52.513Z,32.00
2019-02-28T11:42:48.566Z,31.60
2019-02-28T11:43:48.534Z,31.70
2019-02-28T11:44:48.568Z,31.60
2019-02-28T11:45:48.522Z,31.00
2019-02-28T11:46:48.503Z,31.80
2019-02-28T11:47:48.494Z,31.70
2019-02-28T11:48:51.085Z,31.90
2019-02-28T11:49:49.530Z,31.70
2019-02-28T11:50:48.485Z,31.30
2019-02-28T11:51:49.370Z,31.40
2019-02-28T11:52:48.457Z,30.60
2019-02-28T11:53:48.427Z,30.80
2019-02-28T11:54:48.425Z,30.80
2019-02-28T11:55:48.425Z,30.80
2019-02-28T11:56:48.394Z,31.60
2019-02-28T11:57:48.384Z,31.70
2019-02-28T11:58:51.764Z,30.40
2019-02-28T11:59:48.371Z,32.20
2019-02-28T12:00:48.350Z,30.80
2019-02-28T12:01:48.513Z,31.30
2019-02-28T12:02:53.262Z,32.00
2019-02-28T12:03:49.358Z,32.60
2019-02-28T12:04:48.310Z,31.60
2019-02-28T12:05:50.635Z,32.40
2019-02-28T12:06:50.280Z,32.60
2019-02-28T12:07:48.313Z,32.20
2019-02-28T12:08:48.324Z,31.80
2019-02-28T12:09:48.257Z,31.80
2019-02-28T12:10:48.251Z,32.00
2019-02-28T12:11:48.240Z,32.00
2019-02-28T12:12:48.223Z,30.90
2019-02-28T12:13:48.251Z,32.20
2019-02-28T12:14:48.210Z,31.70
2019-02-28T12:15:48.186Z,31.30
2019-02-28T12:16:52.699Z,31.90
2019-02-28T12:17:49.180Z,33.00
2019-02-28T12:18:48.156Z,31.80
2019-02-28T12:19:50.670Z,31.30
2019-02-28T12:20:48.137Z,32.20
2019-02-28T12:21:48.132Z,32.30
2019-02-28T12:22:49.323Z,32.10
2019-02-28T12:23:48.126Z,31.80
2019-02-28T12:24:48.109Z,32.20
2019-02-28T12:25:48.091Z,32.20
2019-02-28T12:26:49.328Z,32.60
2019-02-28T12:27:48.060Z,32.70
2019-02-28T12:28:48.053Z,32.30
2019-02-28T12:29:49.202Z,31.80
2019-02-28T12:30:48.027Z,32.90
2019-02-28T12:31:48.013Z,32.10
2019-02-28T12:32:48.002Z,32.40
2019-02-28T12:33:47.995Z,32.90
2019-02-28T12:34:47.986Z,32.40
2019-02-28T12:35:47.990Z,32.20
2019-02-28T12:36:49.421Z,32.50
2019-02-28T12:37:47.954Z,32.90
2019-02-28T12:38:47.942Z,32.30
2019-02-28T12:39:47.926Z,32.60
2019-02-28T12:40:49.454Z,31.70
2019-02-28T12:41:47.914Z,32.50
2019-02-28T12:42:47.920Z,31.70
2019-02-28T12:43:47.933Z,31.60
2019-02-28T12:44:49.053Z,32.30
2019-02-28T12:45:47.939Z,33.20
2019-02-28T12:46:47.850Z,32.10
2019-02-28T12:47:47.867Z,32.40
2019-02-28T12:48:48.335Z,32.60
2019-02-28T12:49:47.821Z,33.40
2019-02-28T12:50:47.832Z,34.00
2019-02-28T12:51:47.797Z,33.00
2019-02-28T12:52:49.985Z,33.00
2019-02-28T12:53:47.790Z,33.50
2019-02-28T12:54:47.764Z,33.10
2019-02-28T12:55:47.793Z,33.20
2019-02-28T12:56:48.582Z,33.80
2019-02-28T12:57:47.763Z,33.50
2019-02-28T12:58:47.764Z,33.10
2019-02-28T12:59:47.726Z,34.30
2019-02-28T13:00:47.733Z,33.50
2019-02-28T13:01:47.734Z,33.30
2019-02-28T13:02:47.692Z,33.30
2019-02-28T13:03:47.678Z,32.90
2019-02-28T13:04:47.676Z,34.10
2019-02-28T13:05:49.240Z,33.30